sensor_id;sensor_type;location;lat;lon;timestamp;P1;durP1;ratioP1;P2;durP2;ratioP2
5821;SDS011;2937;48.562;8.022;2022-11-15T00:02:49;6.83;;;4.30;;
5821;SDS011;2937;48.562;8.022;2022-11-15T00:08:00;4.30;;;3.90;;
5821;SDS011;2937;48.562;8.022;2022-11-15T00:13:12;7.50;;;4.20;;
5821;SDS011;2937;48.562;8.022;2022-11-15T00:18:24;7.37;;;4.80;;
5821;SDS011;2937;48.562;8.022;2022-11-15T00:23:35;8.83;;;5.00;;
5821;SDS011;2937;48.562;8.022;2022-11-15T00:28:47;7.03;;;4.33;;
5821;SDS011;2937;48.562;8.022;2022-11-15T00:34:00;6.03;;;4.30;;
5821;SDS011;2937;48.562;8.022;2022-11-15T00:39:11;8.30;;;4.03;;
5821;SDS011;2937;48.562;8.022;2022-11-15T00:44:22;8.50;;;4.10;;
5821;SDS011;2937;48.562;8.022;2022-11-15T00:49:35;5.00;;;4.00;;
5821;SDS011;2937;48.562;8.022;2022-11-15T00:54:46;7.13;;;4.00;;
5821;SDS011;2937;48.562;8.022;2022-11-15T00:59:57;4.90;;;3.83;;
5821;SDS011;2937;48.562;8.022;2022-11-15T01:05:10;4.00;;;3.60;;
5821;SDS011;2937;48.562;8.022;2022-11-15T01:10:21;6.23;;;4.10;;
5821;SDS011;2937;48.562;8.022;2022-11-15T01:15:32;6.60;;;3.60;;
5821;SDS011;2937;48.562;8.022;2022-11-15T01:20:44;5.77;;;3.93;;
5821;SDS011;2937;48.562;8.022;2022-11-15T01:25:58;9.27;;;3.97;;
5821;SDS011;2937;48.562;8.022;2022-11-15T01:31:10;8.70;;;3.97;;
5821;SDS011;2937;48.562;8.022;2022-11-15T01:36:23;3.90;;;3.50;;
5821;SDS011;2937;48.562;8.022;2022-11-15T01:41:34;7.50;;;4.50;;
5821;SDS011;2937;48.562;8.022;2022-11-15T01:46:46;5.93;;;4.07;;
5821;SDS011;2937;48.562;8.022;2022-11-15T01:51:59;6.00;;;4.43;;
5821;SDS011;2937;48.562;8.022;2022-11-15T01:57:10;6.20;;;4.00;;
5821;SDS011;2937;48.562;8.022;2022-11-15T02:02:22;6.10;;;4.60;;
5821;SDS011;2937;48.562;8.022;2022-11-15T02:07:35;5.53;;;5.03;;
5821;SDS011;2937;48.562;8.022;2022-11-15T02:12:46;8.10;;;5.53;;
5821;SDS011;2937;48.562;8.022;2022-11-15T02:18:03;7.97;;;6.27;;
5821;SDS011;2937;48.562;8.022;2022-11-15T02:23:37;11.53;;;6.20;;
5821;SDS011;2937;48.562;8.022;2022-11-15T02:28:56;8.27;;;6.30;;
5821;SDS011;2937;48.562;8.022;2022-11-15T02:34:11;10.33;;;6.80;;
5821;SDS011;2937;48.562;8.022;2022-11-15T02:39:28;8.50;;;7.37;;
5821;SDS011;2937;48.562;8.022;2022-11-15T02:44:43;13.83;;;7.57;;
5821;SDS011;2937;48.562;8.022;2022-11-15T02:49:58;9.97;;;7.47;;
5821;SDS011;2937;48.562;8.022;2022-11-15T02:55:25;9.53;;;7.20;;
5821;SDS011;2937;48.562;8.022;2022-11-15T03:00:37;10.90;;;6.23;;
5821;SDS011;2937;48.562;8.022;2022-11-15T03:05:56;7.87;;;6.63;;
5821;SDS011;2937;48.562;8.022;2022-11-15T03:11:14;7.63;;;6.43;;
5821;SDS011;2937;48.562;8.022;2022-11-15T03:16:27;12.13;;;6.43;;
5821;SDS011;2937;48.562;8.022;2022-11-15T03:21:42;9.77;;;6.80;;
5821;SDS011;2937;48.562;8.022;2022-11-15T03:26:53;7.90;;;6.00;;
5821;SDS011;2937;48.562;8.022;2022-11-15T03:32:06;7.23;;;5.80;;
5821;SDS011;2937;48.562;8.022;2022-11-15T03:37:21;7.30;;;5.70;;
5821;SDS011;2937;48.562;8.022;2022-11-15T03:42:34;8.43;;;5.60;;
5821;SDS011;2937;48.562;8.022;2022-11-15T03:47:48;7.57;;;6.03;;
5821;SDS011;2937;48.562;8.022;2022-11-15T03:53:01;8.73;;;6.40;;
5821;SDS011;2937;48.562;8.022;2022-11-15T03:58:12;12.77;;;7.37;;
5821;SDS011;2937;48.562;8.022;2022-11-15T04:03:24;9.10;;;6.67;;
5821;SDS011;2937;48.562;8.022;2022-11-15T04:08:36;10.40;;;8.10;;
5821;SDS011;2937;48.562;8.022;2022-11-15T04:13:47;9.70;;;7.67;;
5821;SDS011;2937;48.562;8.022;2022-11-15T04:18:58;13.40;;;7.53;;
5821;SDS011;2937;48.562;8.022;2022-11-15T04:24:29;10.27;;;7.20;;
5821;SDS011;2937;48.562;8.022;2022-11-15T04:29:40;8.43;;;6.70;;
5821;SDS011;2937;48.562;8.022;2022-11-15T04:34:52;9.60;;;6.60;;
5821;SDS011;2937;48.562;8.022;2022-11-15T04:40:05;10.93;;;7.13;;
5821;SDS011;2937;48.562;8.022;2022-11-15T04:45:16;7.47;;;6.67;;
5821;SDS011;2937;48.562;8.022;2022-11-15T04:50:28;7.43;;;4.57;;
5821;SDS011;2937;48.562;8.022;2022-11-15T04:55:40;11.13;;;4.73;;
5821;SDS011;2937;48.562;8.022;2022-11-15T05:00:54;6.60;;;4.87;;
5821;SDS011;2937;48.562;8.022;2022-11-15T05:06:06;6.40;;;4.80;;
5821;SDS011;2937;48.562;8.022;2022-11-15T05:11:18;5.70;;;4.60;;
5821;SDS011;2937;48.562;8.022;2022-11-15T05:16:30;6.20;;;4.60;;
5821;SDS011;2937;48.562;8.022;2022-11-15T05:21:41;5.27;;;4.63;;
5821;SDS011;2937;48.562;8.022;2022-11-15T05:26:53;6.20;;;4.33;;
5821;SDS011;2937;48.562;8.022;2022-11-15T05:32:05;5.70;;;4.93;;
5821;SDS011;2937;48.562;8.022;2022-11-15T05:37:16;5.97;;;5.20;;
5821;SDS011;2937;48.562;8.022;2022-11-15T05:42:30;10.60;;;5.63;;
5821;SDS011;2937;48.562;8.022;2022-11-15T05:47:41;69.47;;;40.50;;
5821;SDS011;2937;48.562;8.022;2022-11-15T05:52:52;26.53;;;17.00;;
5821;SDS011;2937;48.562;8.022;2022-11-15T05:58:12;68.60;;;36.30;;
5821;SDS011;2937;48.562;8.022;2022-11-15T06:03:24;18.70;;;13.60;;
5821;SDS011;2937;48.562;8.022;2022-11-15T06:08:35;14.17;;;10.03;;
5821;SDS011;2937;48.562;8.022;2022-11-15T06:13:47;16.30;;;10.37;;
5821;SDS011;2937;48.562;8.022;2022-11-15T06:18:59;14.00;;;9.10;;
5821;SDS011;2937;48.562;8.022;2022-11-15T06:24:10;11.13;;;8.67;;
5821;SDS011;2937;48.562;8.022;2022-11-15T06:29:23;11.30;;;8.27;;
5821;SDS011;2937;48.562;8.022;2022-11-15T06:34:34;10.67;;;7.90;;
5821;SDS011;2937;48.562;8.022;2022-11-15T06:39:45;12.00;;;9.00;;
5821;SDS011;2937;48.562;8.022;2022-11-15T06:44:58;10.93;;;8.07;;
5821;SDS011;2937;48.562;8.022;2022-11-15T06:50:09;8.00;;;6.50;;
5821;SDS011;2937;48.562;8.022;2022-11-15T06:55:20;7.90;;;5.73;;
5821;SDS011;2937;48.562;8.022;2022-11-15T07:00:33;8.30;;;6.10;;
5821;SDS011;2937;48.562;8.022;2022-11-15T07:05:50;8.90;;;6.00;;
5821;SDS011;2937;48.562;8.022;2022-11-15T07:11:02;9.60;;;6.57;;
5821;SDS011;2937;48.562;8.022;2022-11-15T07:16:14;9.30;;;6.43;;
5821;SDS011;2937;48.562;8.022;2022-11-15T07:21:25;8.20;;;6.50;;
5821;SDS011;2937;48.562;8.022;2022-11-15T07:26:36;8.30;;;6.40;;
5821;SDS011;2937;48.562;8.022;2022-11-15T07:31:49;10.43;;;7.30;;
5821;SDS011;2937;48.562;8.022;2022-11-15T07:37:00;7.00;;;5.97;;
5821;SDS011;2937;48.562;8.022;2022-11-15T07:42:11;10.40;;;6.87;;
5821;SDS011;2937;48.562;8.022;2022-11-15T07:47:53;9.67;;;6.70;;
5821;SDS011;2937;48.562;8.022;2022-11-15T07:53:05;8.13;;;6.50;;
5821;SDS011;2937;48.562;8.022;2022-11-15T07:58:16;8.37;;;6.97;;
5821;SDS011;2937;48.562;8.022;2022-11-15T08:03:29;8.00;;;6.60;;
5821;SDS011;2937;48.562;8.022;2022-11-15T08:08:41;12.47;;;8.90;;
5821;SDS011;2937;48.562;8.022;2022-11-15T08:13:52;11.93;;;8.43;;
5821;SDS011;2937;48.562;8.022;2022-11-15T08:19:05;11.37;;;6.20;;
5821;SDS011;2937;48.562;8.022;2022-11-15T08:24:16;10.57;;;7.40;;
5821;SDS011;2937;48.562;8.022;2022-11-15T08:29:27;10.10;;;8.73;;
5821;SDS011;2937;48.562;8.022;2022-11-15T08:34:39;15.40;;;12.90;;
5821;SDS011;2937;48.562;8.022;2022-11-15T08:39:51;13.33;;;11.77;;
5821;SDS011;2937;48.562;8.022;2022-11-15T08:45:02;10.30;;;7.30;;
5821;SDS011;2937;48.562;8.022;2022-11-15T08:50:15;6.40;;;5.30;;
5821;SDS011;2937;48.562;8.022;2022-11-15T08:55:26;5.87;;;5.27;;
5821;SDS011;2937;48.562;8.022;2022-11-15T09:00:37;6.50;;;5.03;;
5821;SDS011;2937;48.562;8.022;2022-11-15T09:05:50;6.53;;;5.53;;
5821;SDS011;2937;48.562;8.022;2022-11-15T09:11:04;8.73;;;5.60;;
5821;SDS011;2937;48.562;8.022;2022-11-15T09:16:16;7.50;;;6.10;;
5821;SDS011;2937;48.562;8.022;2022-11-15T09:21:29;6.80;;;5.80;;
5821;SDS011;2937;48.562;8.022;2022-11-15T09:26:40;8.07;;;6.37;;
5821;SDS011;2937;48.562;8.022;2022-11-15T09:31:52;7.80;;;6.17;;
5821;SDS011;2937;48.562;8.022;2022-11-15T09:37:04;9.40;;;6.43;;
5821;SDS011;2937;48.562;8.022;2022-11-15T09:42:20;9.07;;;7.70;;
5821;SDS011;2937;48.562;8.022;2022-11-15T09:47:44;9.60;;;6.90;;
5821;SDS011;2937;48.562;8.022;2022-11-15T09:53:02;7.93;;;5.93;;
5821;SDS011;2937;48.562;8.022;2022-11-15T09:57:57;6.13;;;4.70;;
5821;SDS011;2937;48.562;8.022;2022-11-15T10:03:06;4.53;;;4.13;;
5821;SDS011;2937;48.562;8.022;2022-11-15T10:08:01;6.37;;;4.30;;
5821;SDS011;2937;48.562;8.022;2022-11-15T10:12:57;7.13;;;4.63;;
5821;SDS011;2937;48.562;8.022;2022-11-15T10:17:54;4.37;;;3.90;;
5821;SDS011;2937;48.562;8.022;2022-11-15T10:22:49;7.87;;;4.90;;
5821;SDS011;2937;48.562;8.022;2022-11-15T10:27:42;5.90;;;5.03;;
5821;SDS011;2937;48.562;8.022;2022-11-15T10:32:37;6.87;;;5.63;;
5821;SDS011;2937;48.562;8.022;2022-11-15T10:37:30;6.30;;;5.33;;
5821;SDS011;2937;48.562;8.022;2022-11-15T10:42:25;8.47;;;5.50;;
5821;SDS011;2937;48.562;8.022;2022-11-15T10:52:31;7.57;;;4.40;;
5821;SDS011;2937;48.562;8.022;2022-11-15T10:57:25;4.80;;;4.30;;
5821;SDS011;2937;48.562;8.022;2022-11-15T11:02:28;5.00;;;4.40;;
5821;SDS011;2937;48.562;8.022;2022-11-15T11:07:22;4.60;;;4.07;;
5821;SDS011;2937;48.562;8.022;2022-11-15T11:12:16;3.63;;;3.33;;
5821;SDS011;2937;48.562;8.022;2022-11-15T11:17:21;4.53;;;3.70;;
5821;SDS011;2937;48.562;8.022;2022-11-15T11:22:19;3.63;;;2.50;;
5821;SDS011;2937;48.562;8.022;2022-11-15T11:27:13;2.70;;;2.40;;
5821;SDS011;2937;48.562;8.022;2022-11-15T11:32:18;3.00;;;2.67;;
5821;SDS011;2937;48.562;8.022;2022-11-15T11:37:17;2.50;;;2.30;;
5821;SDS011;2937;48.562;8.022;2022-11-15T11:42:14;2.30;;;2.10;;
5821;SDS011;2937;48.562;8.022;2022-11-15T11:47:09;2.60;;;2.40;;
5821;SDS011;2937;48.562;8.022;2022-11-15T11:52:06;3.20;;;2.60;;
5821;SDS011;2937;48.562;8.022;2022-11-15T11:57:01;3.70;;;3.03;;
5821;SDS011;2937;48.562;8.022;2022-11-15T12:01:55;4.63;;;3.77;;
5821;SDS011;2937;48.562;8.022;2022-11-15T12:06:50;5.13;;;4.23;;
5821;SDS011;2937;48.562;8.022;2022-11-15T12:11:49;6.17;;;4.70;;
5821;SDS011;2937;48.562;8.022;2022-11-15T12:16:43;5.83;;;3.70;;
5821;SDS011;2937;48.562;8.022;2022-11-15T12:21:36;3.83;;;3.43;;
5821;SDS011;2937;48.562;8.022;2022-11-15T12:26:32;3.07;;;2.70;;
5821;SDS011;2937;48.562;8.022;2022-11-15T12:31:30;2.90;;;2.57;;
5821;SDS011;2937;48.562;8.022;2022-11-15T12:36:34;2.90;;;2.60;;
5821;SDS011;2937;48.562;8.022;2022-11-15T12:41:28;2.80;;;2.50;;
5821;SDS011;2937;48.562;8.022;2022-11-15T12:46:22;2.40;;;2.20;;
5821;SDS011;2937;48.562;8.022;2022-11-15T12:51:18;2.23;;;1.97;;
5821;SDS011;2937;48.562;8.022;2022-11-15T12:56:21;6.77;;;2.23;;
5821;SDS011;2937;48.562;8.022;2022-11-15T13:06:41;3.10;;;2.33;;
5821;SDS011;2937;48.562;8.022;2022-11-15T13:11:47;3.80;;;2.00;;
5821;SDS011;2937;48.562;8.022;2022-11-15T13:16:40;2.37;;;2.17;;
5821;SDS011;2937;48.562;8.022;2022-11-15T13:21:33;4.60;;;2.00;;
5821;SDS011;2937;48.562;8.022;2022-11-15T13:26:45;1.93;;;1.83;;
5821;SDS011;2937;48.562;8.022;2022-11-15T13:31:39;2.10;;;1.90;;
5821;SDS011;2937;48.562;8.022;2022-11-15T13:36:32;2.07;;;1.87;;
5821;SDS011;2937;48.562;8.022;2022-11-15T13:41:26;2.53;;;1.70;;
5821;SDS011;2937;48.562;8.022;2022-11-15T13:46:21;22.93;;;20.53;;
5821;SDS011;2937;48.562;8.022;2022-11-15T13:51:15;6.83;;;4.60;;
5821;SDS011;2937;48.562;8.022;2022-11-15T13:56:10;5.67;;;4.33;;
5821;SDS011;2937;48.562;8.022;2022-11-15T14:01:03;5.43;;;3.60;;
5821;SDS011;2937;48.562;8.022;2022-11-15T14:06:08;7.30;;;4.40;;
5821;SDS011;2937;48.562;8.022;2022-11-15T14:11:07;6.87;;;5.20;;
5821;SDS011;2937;48.562;8.022;2022-11-15T14:16:12;4.27;;;2.90;;
5821;SDS011;2937;48.562;8.022;2022-11-15T14:21:05;3.63;;;2.47;;
5821;SDS011;2937;48.562;8.022;2022-11-15T14:26:00;2.60;;;2.40;;
5821;SDS011;2937;48.562;8.022;2022-11-15T14:31:00;2.47;;;2.10;;
5821;SDS011;2937;48.562;8.022;2022-11-15T14:35:53;3.73;;;3.20;;
5821;SDS011;2937;48.562;8.022;2022-11-15T14:40:47;2.37;;;2.10;;
5821;SDS011;2937;48.562;8.022;2022-11-15T14:45:41;2.00;;;1.80;;
5821;SDS011;2937;48.562;8.022;2022-11-15T14:50:34;2.80;;;2.20;;
5821;SDS011;2937;48.562;8.022;2022-11-15T14:55:27;2.97;;;2.40;;
5821;SDS011;2937;48.562;8.022;2022-11-15T15:00:22;2.00;;;1.80;;
5821;SDS011;2937;48.562;8.022;2022-11-15T15:05:17;2.00;;;1.80;;
5821;SDS011;2937;48.562;8.022;2022-11-15T15:10:10;2.83;;;2.30;;
5821;SDS011;2937;48.562;8.022;2022-11-15T15:15:24;3.60;;;1.70;;
5821;SDS011;2937;48.562;8.022;2022-11-15T15:20:18;2.50;;;1.77;;
5821;SDS011;2937;48.562;8.022;2022-11-15T15:25:18;2.73;;;2.20;;
5821;SDS011;2937;48.562;8.022;2022-11-15T15:30:11;2.10;;;1.90;;
5821;SDS011;2937;48.562;8.022;2022-11-15T15:35:04;2.63;;;2.20;;
5821;SDS011;2937;48.562;8.022;2022-11-15T15:39:58;3.57;;;2.37;;
5821;SDS011;2937;48.562;8.022;2022-11-15T15:44:51;3.60;;;2.37;;
5821;SDS011;2937;48.562;8.022;2022-11-15T15:49:44;4.13;;;2.23;;
5821;SDS011;2937;48.562;8.022;2022-11-15T15:54:37;4.00;;;2.67;;
5821;SDS011;2937;48.562;8.022;2022-11-15T15:59:31;2.90;;;2.47;;
5821;SDS011;2937;48.562;8.022;2022-11-15T16:04:23;12.20;;;9.00;;
5821;SDS011;2937;48.562;8.022;2022-11-15T16:09:17;7.20;;;5.40;;
5821;SDS011;2937;48.562;8.022;2022-11-15T16:14:11;10.73;;;7.10;;
5821;SDS011;2937;48.562;8.022;2022-11-15T16:19:05;14.57;;;11.00;;
5821;SDS011;2937;48.562;8.022;2022-11-15T16:23:58;22.63;;;16.50;;
5821;SDS011;2937;48.562;8.022;2022-11-15T16:28:51;17.30;;;14.13;;
5821;SDS011;2937;48.562;8.022;2022-11-15T16:33:43;13.60;;;11.10;;
5821;SDS011;2937;48.562;8.022;2022-11-15T16:38:38;20.30;;;15.23;;
5821;SDS011;2937;48.562;8.022;2022-11-15T16:43:30;14.03;;;11.00;;
5821;SDS011;2937;48.562;8.022;2022-11-15T16:48:24;11.10;;;9.20;;
5821;SDS011;2937;48.562;8.022;2022-11-15T16:53:16;12.03;;;8.80;;
5821;SDS011;2937;48.562;8.022;2022-11-15T16:58:10;12.60;;;8.70;;
5821;SDS011;2937;48.562;8.022;2022-11-15T17:03:03;9.80;;;7.57;;
5821;SDS011;2937;48.562;8.022;2022-11-15T17:07:56;9.90;;;7.83;;
5821;SDS011;2937;48.562;8.022;2022-11-15T17:12:48;10.00;;;7.40;;
5821;SDS011;2937;48.562;8.022;2022-11-15T17:17:43;11.20;;;8.60;;
5821;SDS011;2937;48.562;8.022;2022-11-15T17:22:36;16.50;;;11.73;;
5821;SDS011;2937;48.562;8.022;2022-11-15T17:27:30;16.77;;;12.77;;
5821;SDS011;2937;48.562;8.022;2022-11-15T17:32:22;44.67;;;34.23;;
5821;SDS011;2937;48.562;8.022;2022-11-15T17:37:17;35.03;;;26.97;;
5821;SDS011;2937;48.562;8.022;2022-11-15T17:42:09;30.10;;;22.90;;
5821;SDS011;2937;48.562;8.022;2022-11-15T17:47:02;36.93;;;26.57;;
5821;SDS011;2937;48.562;8.022;2022-11-15T17:51:55;25.73;;;18.77;;
5821;SDS011;2937;48.562;8.022;2022-11-15T17:56:49;21.20;;;15.20;;
5821;SDS011;2937;48.562;8.022;2022-11-15T18:01:41;21.80;;;16.17;;
5821;SDS011;2937;48.562;8.022;2022-11-15T18:06:34;48.90;;;34.07;;
5821;SDS011;2937;48.562;8.022;2022-11-15T18:11:28;29.20;;;22.30;;
5821;SDS011;2937;48.562;8.022;2022-11-15T18:16:23;25.13;;;19.07;;
5821;SDS011;2937;48.562;8.022;2022-11-15T18:21:17;28.03;;;19.57;;
5821;SDS011;2937;48.562;8.022;2022-11-15T18:26:11;24.77;;;16.27;;
5821;SDS011;2937;48.562;8.022;2022-11-15T18:31:11;26.20;;;19.03;;
5821;SDS011;2937;48.562;8.022;2022-11-15T18:36:06;21.83;;;15.43;;
5821;SDS011;2937;48.562;8.022;2022-11-15T18:41:04;29.17;;;20.33;;
5821;SDS011;2937;48.562;8.022;2022-11-15T18:46:00;34.50;;;24.33;;
5821;SDS011;2937;48.562;8.022;2022-11-15T18:50:53;24.47;;;19.27;;
5821;SDS011;2937;48.562;8.022;2022-11-15T18:56:00;23.30;;;19.23;;
5821;SDS011;2937;48.562;8.022;2022-11-15T19:00:58;51.53;;;35.90;;
5821;SDS011;2937;48.562;8.022;2022-11-15T19:05:51;29.73;;;20.70;;
5821;SDS011;2937;48.562;8.022;2022-11-15T19:10:43;29.47;;;22.03;;
5821;SDS011;2937;48.562;8.022;2022-11-15T19:15:37;23.27;;;17.40;;
5821;SDS011;2937;48.562;8.022;2022-11-15T19:20:30;21.70;;;16.47;;
5821;SDS011;2937;48.562;8.022;2022-11-15T19:25:22;21.37;;;16.37;;
5821;SDS011;2937;48.562;8.022;2022-11-15T19:30:19;22.30;;;16.57;;
5821;SDS011;2937;48.562;8.022;2022-11-15T19:35:13;21.70;;;17.00;;
5821;SDS011;2937;48.562;8.022;2022-11-15T19:40:06;21.60;;;15.30;;
5821;SDS011;2937;48.562;8.022;2022-11-15T19:44:59;24.37;;;15.67;;
5821;SDS011;2937;48.562;8.022;2022-11-15T19:49:51;21.83;;;16.43;;
5821;SDS011;2937;48.562;8.022;2022-11-15T19:54:45;24.23;;;16.70;;
5821;SDS011;2937;48.562;8.022;2022-11-15T19:59:38;13.93;;;10.87;;
5821;SDS011;2937;48.562;8.022;2022-11-15T20:04:30;15.47;;;11.40;;
5821;SDS011;2937;48.562;8.022;2022-11-15T20:09:23;15.20;;;12.20;;
5821;SDS011;2937;48.562;8.022;2022-11-15T20:14:18;12.90;;;11.60;;
5821;SDS011;2937;48.562;8.022;2022-11-15T20:19:10;18.77;;;12.50;;
5821;SDS011;2937;48.562;8.022;2022-11-15T20:24:06;18.60;;;14.40;;
5821;SDS011;2937;48.562;8.022;2022-11-15T20:28:59;23.50;;;19.43;;
5821;SDS011;2937;48.562;8.022;2022-11-15T20:33:54;18.70;;;15.57;;
5821;SDS011;2937;48.562;8.022;2022-11-15T20:38:47;18.43;;;15.90;;
5821;SDS011;2937;48.562;8.022;2022-11-15T20:43:40;20.40;;;15.10;;
5821;SDS011;2937;48.562;8.022;2022-11-15T20:48:34;16.10;;;13.87;;
5821;SDS011;2937;48.562;8.022;2022-11-15T20:53:28;16.53;;;12.17;;
5821;SDS011;2937;48.562;8.022;2022-11-15T20:58:22;14.20;;;11.80;;
5821;SDS011;2937;48.562;8.022;2022-11-15T21:03:18;16.53;;;12.27;;
5821;SDS011;2937;48.562;8.022;2022-11-15T21:08:11;16.10;;;12.70;;
5821;SDS011;2937;48.562;8.022;2022-11-15T21:13:05;17.27;;;13.10;;
5821;SDS011;2937;48.562;8.022;2022-11-15T21:17:58;14.43;;;11.90;;
5821;SDS011;2937;48.562;8.022;2022-11-15T21:22:50;14.10;;;11.60;;
5821;SDS011;2937;48.562;8.022;2022-11-15T21:27:44;15.90;;;10.83;;
5821;SDS011;2937;48.562;8.022;2022-11-15T21:32:38;12.00;;;10.20;;
5821;SDS011;2937;48.562;8.022;2022-11-15T21:37:31;10.90;;;9.33;;
5821;SDS011;2937;48.562;8.022;2022-11-15T21:42:24;9.30;;;7.47;;
5821;SDS011;2937;48.562;8.022;2022-11-15T21:47:17;11.07;;;8.60;;
5821;SDS011;2937;48.562;8.022;2022-11-15T21:52:11;9.80;;;8.30;;
5821;SDS011;2937;48.562;8.022;2022-11-15T21:57:04;12.70;;;9.20;;
5821;SDS011;2937;48.562;8.022;2022-11-15T22:01:57;11.77;;;9.40;;
5821;SDS011;2937;48.562;8.022;2022-11-15T22:07:08;13.30;;;10.27;;
5821;SDS011;2937;48.562;8.022;2022-11-15T22:12:02;11.80;;;9.40;;
5821;SDS011;2937;48.562;8.022;2022-11-15T22:16:54;12.47;;;10.07;;
5821;SDS011;2937;48.562;8.022;2022-11-15T22:21:47;11.57;;;9.70;;
5821;SDS011;2937;48.562;8.022;2022-11-15T22:26:39;10.73;;;9.63;;
5821;SDS011;2937;48.562;8.022;2022-11-15T22:31:34;12.73;;;10.87;;
5821;SDS011;2937;48.562;8.022;2022-11-15T22:36:26;15.50;;;12.80;;
5821;SDS011;2937;48.562;8.022;2022-11-15T22:41:39;18.37;;;14.10;;
5821;SDS011;2937;48.562;8.022;2022-11-15T22:46:31;15.50;;;13.50;;
5821;SDS011;2937;48.562;8.022;2022-11-15T22:51:25;13.90;;;9.57;;
5821;SDS011;2937;48.562;8.022;2022-11-15T22:56:18;11.57;;;9.30;;
5821;SDS011;2937;48.562;8.022;2022-11-15T23:01:14;15.70;;;11.00;;
5821;SDS011;2937;48.562;8.022;2022-11-15T23:06:09;14.23;;;10.30;;
5821;SDS011;2937;48.562;8.022;2022-11-15T23:11:03;10.83;;;8.57;;
5821;SDS011;2937;48.562;8.022;2022-11-15T23:16:14;13.20;;;10.03;;
5821;SDS011;2937;48.562;8.022;2022-11-15T23:21:25;11.90;;;9.60;;
5821;SDS011;2937;48.562;8.022;2022-11-15T23:26:36;13.43;;;10.60;;
5821;SDS011;2937;48.562;8.022;2022-11-15T23:31:29;16.67;;;11.00;;
5821;SDS011;2937;48.562;8.022;2022-11-15T23:36:52;15.50;;;11.10;;
5821;SDS011;2937;48.562;8.022;2022-11-15T23:41:46;18.93;;;11.80;;
5821;SDS011;2937;48.562;8.022;2022-11-15T23:46:38;14.87;;;11.90;;
5821;SDS011;2937;48.562;8.022;2022-11-15T23:51:31;23.30;;;15.60;;
5821;SDS011;2937;48.562;8.022;2022-11-15T23:56:24;35.53;;;20.10;;
